sensor_id;sensor_type;location;lat;lon;timestamp;pressure;altitude;pressure_sealevel;temperature;humidity
77017;BME280;65949;53.132;17.930;2023-05-23T00:01:05;101012.75;;;13.52;62.62
77017;BME280;65949;53.132;17.930;2023-05-23T00:03:33;101012.60;;;13.48;62.68
77017;BME280;65949;53.132;17.930;2023-05-23T00:06:00;101011.76;;;13.45;62.94
77017;BME280;65949;53.132;17.930;2023-05-23T00:08:27;101017.16;;;13.40;63.09
77017;BME280;65949;53.132;17.930;2023-05-23T00:10:54;101011.81;;;13.36;63.28
77017;BME280;65949;53.132;17.930;2023-05-23T00:13:20;101012.81;;;13.33;63.04
77017;BME280;65949;53.132;17.930;2023-05-23T00:15:48;101008.31;;;13.30;63.20
77017;BME280;65949;53.132;17.930;2023-05-23T00:18:14;101006.05;;;13.26;63.40
77017;BME280;65949;53.132;17.930;2023-05-23T00:20:42;100998.08;;;13.21;63.69
77017;BME280;65949;53.132;17.930;2023-05-23T00:23:11;101002.06;;;13.17;63.58
77017;BME280;65949;53.132;17.930;2023-05-23T00:25:44;101003.95;;;13.15;63.57
77017;BME280;65949;53.132;17.930;2023-05-23T00:28:13;101004.14;;;13.11;63.53
77017;BME280;65949;53.132;17.930;2023-05-23T00:30:41;101003.35;;;13.08;63.77
77017;BME280;65949;53.132;17.930;2023-05-23T00:33:08;101000.00;;;13.05;63.87
77017;BME280;65949;53.132;17.930;2023-05-23T00:35:35;100995.23;;;13.02;64.14
77017;BME280;65949;53.132;17.930;2023-05-23T00:38:01;100994.95;;;12.99;64.12
77017;BME280;65949;53.132;17.930;2023-05-23T00:40:29;100994.61;;;12.95;64.22
77017;BME280;65949;53.132;17.930;2023-05-23T00:42:55;100992.98;;;12.90;64.21
77017;BME280;65949;53.132;17.930;2023-05-23T00:45:22;100990.77;;;12.87;64.30
77017;BME280;65949;53.132;17.930;2023-05-23T00:47:48;100988.78;;;12.83;64.37
77017;BME280;65949;53.132;17.930;2023-05-23T00:50:17;100987.20;;;12.79;64.69
77017;BME280;65949;53.132;17.930;2023-05-23T00:52:44;100982.12;;;12.75;64.82
77017;BME280;65949;53.132;17.930;2023-05-23T00:55:13;100982.00;;;12.73;64.62
77017;BME280;65949;53.132;17.930;2023-05-23T00:57:42;100980.48;;;12.70;65.03
77017;BME280;65949;53.132;17.930;2023-05-23T01:00:12;100978.48;;;12.68;65.04
77017;BME280;65949;53.132;17.930;2023-05-23T01:02:44;100978.28;;;12.65;65.15
77017;BME280;65949;53.132;17.930;2023-05-23T01:05:14;100978.48;;;12.61;65.21
77017;BME280;65949;53.132;17.930;2023-05-23T01:07:47;100980.70;;;12.57;65.26
77017;BME280;65949;53.132;17.930;2023-05-23T01:10:17;100984.36;;;12.54;65.38
77017;BME280;65949;53.132;17.930;2023-05-23T01:15:31;100989.35;;;12.47;65.61
77017;BME280;65949;53.132;17.930;2023-05-23T01:18:06;100991.44;;;12.44;65.91
77017;BME280;65949;53.132;17.930;2023-05-23T01:20:37;100990.27;;;12.42;65.89
77017;BME280;65949;53.132;17.930;2023-05-23T01:23:22;100991.25;;;12.39;65.81
77017;BME280;65949;53.132;17.930;2023-05-23T01:26:03;100988.21;;;12.36;65.96
77017;BME280;65949;53.132;17.930;2023-05-23T01:28:37;100989.51;;;12.34;66.17
77017;BME280;65949;53.132;17.930;2023-05-23T01:31:08;100985.93;;;12.31;66.17
77017;BME280;65949;53.132;17.930;2023-05-23T01:33:37;100986.72;;;12.31;66.35
77017;BME280;65949;53.132;17.930;2023-05-23T01:36:06;100987.80;;;12.27;66.34
77017;BME280;65949;53.132;17.930;2023-05-23T01:38:33;100987.09;;;12.20;66.32
77017;BME280;65949;53.132;17.930;2023-05-23T01:41:00;100987.75;;;12.16;66.49
77017;BME280;65949;53.132;17.930;2023-05-23T01:43:26;100985.90;;;12.13;66.62
77017;BME280;65949;53.132;17.930;2023-05-23T01:45:54;100983.63;;;12.09;66.73
77017;BME280;65949;53.132;17.930;2023-05-23T01:48:23;100985.38;;;12.05;66.81
77017;BME280;65949;53.132;17.930;2023-05-23T01:50:52;100984.02;;;12.02;67.01
77017;BME280;65949;53.132;17.930;2023-05-23T01:53:21;100983.21;;;12.00;66.78
77017;BME280;65949;53.132;17.930;2023-05-23T01:55:49;100980.38;;;11.99;67.04
77017;BME280;65949;53.132;17.930;2023-05-23T01:58:16;100977.91;;;11.95;67.27
77017;BME280;65949;53.132;17.930;2023-05-23T02:00:43;100972.20;;;11.90;67.11
77017;BME280;65949;53.132;17.930;2023-05-23T02:03:10;100969.55;;;11.86;67.26
77017;BME280;65949;53.132;17.930;2023-05-23T02:05:37;100965.23;;;11.82;67.49
77017;BME280;65949;53.132;17.930;2023-05-23T02:08:03;100966.53;;;11.78;67.59
77017;BME280;65949;53.132;17.930;2023-05-23T02:10:30;100969.38;;;11.75;67.92
77017;BME280;65949;53.132;17.930;2023-05-23T02:13:00;100967.05;;;11.72;67.69
77017;BME280;65949;53.132;17.930;2023-05-23T02:15:27;100965.23;;;11.70;67.96
77017;BME280;65949;53.132;17.930;2023-05-23T02:17:54;100966.83;;;11.68;68.11
77017;BME280;65949;53.132;17.930;2023-05-23T02:20:21;100965.50;;;11.65;68.14
77017;BME280;65949;53.132;17.930;2023-05-23T02:22:48;100964.31;;;11.61;68.22
77017;BME280;65949;53.132;17.930;2023-05-23T02:25:14;100963.97;;;11.58;68.34
77017;BME280;65949;53.132;17.930;2023-05-23T02:27:41;100961.91;;;11.56;68.52
77017;BME280;65949;53.132;17.930;2023-05-23T02:30:08;100956.94;;;11.53;68.44
77017;BME280;65949;53.132;17.930;2023-05-23T02:32:34;100955.93;;;11.51;68.45
77017;BME280;65949;53.132;17.930;2023-05-23T02:35:03;100954.86;;;11.49;68.61
77017;BME280;65949;53.132;17.930;2023-05-23T02:37:30;100953.02;;;11.47;68.70
77017;BME280;65949;53.132;17.930;2023-05-23T02:39:57;100950.71;;;11.45;68.70
77017;BME280;65949;53.132;17.930;2023-05-23T02:42:24;100955.09;;;11.45;68.76
77017;BME280;65949;53.132;17.930;2023-05-23T02:44:50;100954.21;;;11.43;68.68
77017;BME280;65949;53.132;17.930;2023-05-23T02:47:17;100949.61;;;11.43;68.71
77017;BME280;65949;53.132;17.930;2023-05-23T02:49:44;100948.83;;;11.43;68.86
77017;BME280;65949;53.132;17.930;2023-05-23T02:52:12;100943.45;;;11.44;68.91
77017;BME280;65949;53.132;17.930;2023-05-23T02:54:39;100943.30;;;11.45;69.05
77017;BME280;65949;53.132;17.930;2023-05-23T02:57:06;100941.90;;;11.46;68.91
77017;BME280;65949;53.132;17.930;2023-05-23T02:59:34;100938.58;;;11.48;69.32
77017;BME280;65949;53.132;17.930;2023-05-23T03:02:01;100935.56;;;11.51;69.16
77017;BME280;65949;53.132;17.930;2023-05-23T03:04:28;100937.04;;;11.53;68.89
77017;BME280;65949;53.132;17.930;2023-05-23T03:06:55;100929.70;;;11.57;69.04
77017;BME280;65949;53.132;17.930;2023-05-23T03:09:22;100932.42;;;11.60;69.05
77017;BME280;65949;53.132;17.930;2023-05-23T03:11:48;100932.48;;;11.64;69.09
77017;BME280;65949;53.132;17.930;2023-05-23T03:14:15;100932.09;;;11.67;68.97
77017;BME280;65949;53.132;17.930;2023-05-23T03:16:42;100933.84;;;11.71;68.85
77017;BME280;65949;53.132;17.930;2023-05-23T03:19:09;100936.27;;;11.75;69.04
77017;BME280;65949;53.132;17.930;2023-05-23T03:21:35;100937.39;;;11.79;68.76
77017;BME280;65949;53.132;17.930;2023-05-23T03:24:02;100934.66;;;11.86;68.64
77017;BME280;65949;53.132;17.930;2023-05-23T03:26:29;100933.55;;;11.95;68.90
77017;BME280;65949;53.132;17.930;2023-05-23T03:28:56;100932.72;;;12.04;68.65
77017;BME280;65949;53.132;17.930;2023-05-23T03:31:23;100933.65;;;12.14;68.23
77017;BME280;65949;53.132;17.930;2023-05-23T03:33:49;100931.48;;;12.22;68.36
77017;BME280;65949;53.132;17.930;2023-05-23T03:36:16;100928.79;;;12.25;68.35
77017;BME280;65949;53.132;17.930;2023-05-23T03:38:43;100928.84;;;12.30;68.43
77017;BME280;65949;53.132;17.930;2023-05-23T03:41:10;100926.50;;;12.46;67.83
77017;BME280;65949;53.132;17.930;2023-05-23T03:43:37;100921.44;;;13.13;66.92
77017;BME280;65949;53.132;17.930;2023-05-23T03:46:03;100918.81;;;14.02;65.43
77017;BME280;65949;53.132;17.930;2023-05-23T03:48:30;100919.90;;;14.89;63.70
77017;BME280;65949;53.132;17.930;2023-05-23T03:50:57;100918.77;;;15.66;62.27
77017;BME280;65949;53.132;17.930;2023-05-23T03:53:24;100917.52;;;16.45;60.80
77017;BME280;65949;53.132;17.930;2023-05-23T03:55:51;100914.70;;;17.18;59.11
77017;BME280;65949;53.132;17.930;2023-05-23T03:58:19;100915.64;;;17.78;57.43
77017;BME280;65949;53.132;17.930;2023-05-23T04:00:47;100912.83;;;18.25;56.15
77017;BME280;65949;53.132;17.930;2023-05-23T04:03:15;100915.79;;;18.49;55.27
77017;BME280;65949;53.132;17.930;2023-05-23T04:05:42;100908.79;;;18.84;54.50
77017;BME280;65949;53.132;17.930;2023-05-23T04:08:09;100910.52;;;19.28;52.74
77017;BME280;65949;53.132;17.930;2023-05-23T04:10:36;100911.98;;;19.57;52.02
77017;BME280;65949;53.132;17.930;2023-05-23T04:13:03;100914.15;;;19.98;51.31
77017;BME280;65949;53.132;17.930;2023-05-23T04:15:30;100911.01;;;20.02;50.98
77017;BME280;65949;53.132;17.930;2023-05-23T04:18:05;100908.14;;;19.60;51.18
77017;BME280;65949;53.132;17.930;2023-05-23T04:20:34;100908.73;;;19.06;51.60
77017;BME280;65949;53.132;17.930;2023-05-23T04:23:01;100907.00;;;18.95;51.78
77017;BME280;65949;53.132;17.930;2023-05-23T04:25:29;100900.34;;;18.71;51.95
77017;BME280;65949;53.132;17.930;2023-05-23T04:28:15;100900.82;;;18.68;51.97
77017;BME280;65949;53.132;17.930;2023-05-23T04:30:43;100905.41;;;18.73;51.86
77017;BME280;65949;53.132;17.930;2023-05-23T04:33:11;100903.92;;;18.73;51.90
77017;BME280;65949;53.132;17.930;2023-05-23T04:35:39;100902.42;;;18.83;51.61
77017;BME280;65949;53.132;17.930;2023-05-23T04:38:07;100905.19;;;19.26;51.24
77017;BME280;65949;53.132;17.930;2023-05-23T04:40:34;100907.89;;;19.81;50.22
77017;BME280;65949;53.132;17.930;2023-05-23T04:43:13;100907.95;;;20.19;49.74
77017;BME280;65949;53.132;17.930;2023-05-23T04:46:04;100905.92;;;20.80;48.75
77017;BME280;65949;53.132;17.930;2023-05-23T04:48:36;100902.46;;;21.35;47.60
77017;BME280;65949;53.132;17.930;2023-05-23T04:51:04;100900.69;;;21.76;46.88
77017;BME280;65949;53.132;17.930;2023-05-23T04:53:35;100903.70;;;21.82;46.27
77017;BME280;65949;53.132;17.930;2023-05-23T04:56:02;100902.63;;;21.49;46.04
77017;BME280;65949;53.132;17.930;2023-05-23T04:58:30;100900.04;;;21.37;46.33
77017;BME280;65949;53.132;17.930;2023-05-23T05:01:01;100899.81;;;21.45;46.41
77017;BME280;65949;53.132;17.930;2023-05-23T05:03:28;100896.50;;;21.56;46.04
77017;BME280;65949;53.132;17.930;2023-05-23T05:05:56;100894.52;;;21.74;45.75
77017;BME280;65949;53.132;17.930;2023-05-23T05:08:23;100891.11;;;22.08;45.18
77017;BME280;65949;53.132;17.930;2023-05-23T05:10:50;100890.55;;;22.39;44.48
77017;BME280;65949;53.132;17.930;2023-05-23T05:13:18;100888.98;;;22.38;44.09
77017;BME280;65949;53.132;17.930;2023-05-23T05:15:48;100882.27;;;22.33;44.00
77017;BME280;65949;53.132;17.930;2023-05-23T05:18:15;100884.16;;;22.05;43.91
77017;BME280;65949;53.132;17.930;2023-05-23T05:20:42;100882.90;;;21.52;44.83
77017;BME280;65949;53.132;17.930;2023-05-23T05:23:09;100881.94;;;21.12;45.12
77017;BME280;65949;53.132;17.930;2023-05-23T05:25:37;100879.70;;;21.22;45.04
77017;BME280;65949;53.132;17.930;2023-05-23T05:28:04;100874.98;;;21.73;44.31
77017;BME280;65949;53.132;17.930;2023-05-23T05:30:33;100870.30;;;22.25;43.38
77017;BME280;65949;53.132;17.930;2023-05-23T05:33:04;100864.48;;;22.78;42.39
77017;BME280;65949;53.132;17.930;2023-05-23T05:35:35;100862.31;;;23.21;41.42
77017;BME280;65949;53.132;17.930;2023-05-23T05:38:04;100866.67;;;23.59;41.45
77017;BME280;65949;53.132;17.930;2023-05-23T05:40:32;100862.17;;;23.86;40.90
77017;BME280;65949;53.132;17.930;2023-05-23T05:42:59;100860.65;;;24.08;39.96
77017;BME280;65949;53.132;17.930;2023-05-23T05:45:26;100858.63;;;24.19;38.50
77017;BME280;65949;53.132;17.930;2023-05-23T05:47:53;100856.36;;;24.37;38.93
77017;BME280;65949;53.132;17.930;2023-05-23T05:50:22;100855.63;;;24.54;38.01
77017;BME280;65949;53.132;17.930;2023-05-23T05:52:48;100858.79;;;24.61;37.62
77017;BME280;65949;53.132;17.930;2023-05-23T05:55:15;100855.81;;;24.68;37.86
77017;BME280;65949;53.132;17.930;2023-05-23T05:57:45;100849.92;;;24.76;37.72
77017;BME280;65949;53.132;17.930;2023-05-23T06:00:13;100853.70;;;24.61;38.22
77017;BME280;65949;53.132;17.930;2023-05-23T06:02:46;100850.45;;;24.56;37.47
77017;BME280;65949;53.132;17.930;2023-05-23T06:05:15;100844.33;;;24.72;37.15
77017;BME280;65949;53.132;17.930;2023-05-23T06:07:42;100845.09;;;24.58;36.72
77017;BME280;65949;53.132;17.930;2023-05-23T06:10:09;100841.52;;;24.26;37.08
77017;BME280;65949;53.132;17.930;2023-05-23T06:12:39;100847.59;;;24.42;36.88
77017;BME280;65949;53.132;17.930;2023-05-23T06:15:06;100845.29;;;24.46;36.47
77017;BME280;65949;53.132;17.930;2023-05-23T06:17:33;100845.46;;;24.39;36.67
77017;BME280;65949;53.132;17.930;2023-05-23T06:20:00;100845.77;;;24.20;36.20
77017;BME280;65949;53.132;17.930;2023-05-23T06:22:26;100840.66;;;23.82;37.01
77017;BME280;65949;53.132;17.930;2023-05-23T06:24:53;100834.69;;;23.34;37.72
77017;BME280;65949;53.132;17.930;2023-05-23T06:27:20;100829.30;;;22.95;37.46
77017;BME280;65949;53.132;17.930;2023-05-23T06:29:46;100830.57;;;22.68;37.87
77017;BME280;65949;53.132;17.930;2023-05-23T06:32:13;100826.40;;;22.53;38.18
77017;BME280;65949;53.132;17.930;2023-05-23T06:34:39;100821.98;;;22.48;38.60
77017;BME280;65949;53.132;17.930;2023-05-23T06:37:06;100820.89;;;22.54;38.84
77017;BME280;65949;53.132;17.930;2023-05-23T06:39:33;100822.23;;;22.59;38.27
77017;BME280;65949;53.132;17.930;2023-05-23T06:41:59;100819.39;;;22.63;38.06
77017;BME280;65949;53.132;17.930;2023-05-23T06:44:32;100820.61;;;22.65;37.62
77017;BME280;65949;53.132;17.930;2023-05-23T06:47:02;100818.34;;;22.68;37.83
77017;BME280;65949;53.132;17.930;2023-05-23T06:49:28;100811.70;;;22.69;37.50
77017;BME280;65949;53.132;17.930;2023-05-23T06:51:55;100813.38;;;22.69;37.43
77017;BME280;65949;53.132;17.930;2023-05-23T06:54:22;100808.55;;;22.69;37.42
77017;BME280;65949;53.132;17.930;2023-05-23T06:56:49;100809.80;;;22.65;37.21
77017;BME280;65949;53.132;17.930;2023-05-23T06:59:16;100812.10;;;22.58;37.78
77017;BME280;65949;53.132;17.930;2023-05-23T07:01:43;100807.23;;;22.58;37.97
77017;BME280;65949;53.132;17.930;2023-05-23T07:04:09;100803.91;;;22.57;37.02
77017;BME280;65949;53.132;17.930;2023-05-23T07:06:37;100801.15;;;22.43;37.03
77017;BME280;65949;53.132;17.930;2023-05-23T07:09:05;100804.04;;;22.39;37.10
77017;BME280;65949;53.132;17.930;2023-05-23T07:11:32;100799.96;;;22.36;36.71
77017;BME280;65949;53.132;17.930;2023-05-23T07:13:59;100798.95;;;22.37;36.97
77017;BME280;65949;53.132;17.930;2023-05-23T07:16:34;100795.61;;;22.41;37.14
77017;BME280;65949;53.132;17.930;2023-05-23T07:19:03;100794.17;;;22.49;36.82
77017;BME280;65949;53.132;17.930;2023-05-23T07:21:31;100789.81;;;22.55;36.54
77017;BME280;65949;53.132;17.930;2023-05-23T07:23:58;100791.46;;;22.59;36.62
77017;BME280;65949;53.132;17.930;2023-05-23T07:26:24;100787.69;;;22.70;36.77
77017;BME280;65949;53.132;17.930;2023-05-23T07:28:54;100788.80;;;22.83;36.63
77017;BME280;65949;53.132;17.930;2023-05-23T07:31:21;100789.41;;;22.92;36.27
77017;BME280;65949;53.132;17.930;2023-05-23T07:33:48;100788.20;;;22.99;36.37
77017;BME280;65949;53.132;17.930;2023-05-23T07:36:22;100789.77;;;23.06;36.03
77017;BME280;65949;53.132;17.930;2023-05-23T07:38:49;100785.54;;;23.09;35.46
77017;BME280;65949;53.132;17.930;2023-05-23T07:41:16;100781.42;;;23.13;35.08
77017;BME280;65949;53.132;17.930;2023-05-23T07:43:43;100782.39;;;23.19;35.62
77017;BME280;65949;53.132;17.930;2023-05-23T07:46:10;100784.97;;;23.33;35.73
77017;BME280;65949;53.132;17.930;2023-05-23T07:48:37;100784.19;;;23.47;35.50
77017;BME280;65949;53.132;17.930;2023-05-23T07:51:04;100777.52;;;23.58;34.56
77017;BME280;65949;53.132;17.930;2023-05-23T07:53:31;100774.15;;;23.62;33.98
77017;BME280;65949;53.132;17.930;2023-05-23T07:55:58;100770.79;;;23.62;33.67
77017;BME280;65949;53.132;17.930;2023-05-23T07:58:27;100771.70;;;23.59;33.76
77017;BME280;65949;53.132;17.930;2023-05-23T08:00:54;100772.25;;;23.60;34.05
77017;BME280;65949;53.132;17.930;2023-05-23T08:03:43;100774.84;;;23.68;34.52
77017;BME280;65949;53.132;17.930;2023-05-23T08:06:14;100776.17;;;23.79;34.13
77017;BME280;65949;53.132;17.930;2023-05-23T08:08:41;100778.26;;;23.86;33.34
77017;BME280;65949;53.132;17.930;2023-05-23T08:11:09;100772.05;;;23.89;33.18
77017;BME280;65949;53.132;17.930;2023-05-23T08:13:40;100770.61;;;23.99;33.40
77017;BME280;65949;53.132;17.930;2023-05-23T08:16:36;100771.16;;;24.16;33.23
77017;BME280;65949;53.132;17.930;2023-05-23T08:19:03;100760.96;;;24.25;33.09
77017;BME280;65949;53.132;17.930;2023-05-23T08:21:29;100759.10;;;24.29;32.62
77017;BME280;65949;53.132;17.930;2023-05-23T08:23:57;100756.39;;;24.33;33.07
77017;BME280;65949;53.132;17.930;2023-05-23T08:26:24;100754.92;;;24.30;32.19
77017;BME280;65949;53.132;17.930;2023-05-23T08:28:52;100754.02;;;24.27;32.44
77017;BME280;65949;53.132;17.930;2023-05-23T08:31:19;100749.22;;;24.27;33.01
77017;BME280;65949;53.132;17.930;2023-05-23T08:33:47;100746.73;;;24.22;32.54
77017;BME280;65949;53.132;17.930;2023-05-23T08:36:13;100739.95;;;24.10;32.38
77017;BME280;65949;53.132;17.930;2023-05-23T08:38:40;100737.92;;;24.00;32.54
77017;BME280;65949;53.132;17.930;2023-05-23T08:41:18;100744.20;;;23.99;33.20
77017;BME280;65949;53.132;17.930;2023-05-23T08:43:45;100742.11;;;23.92;33.12
77017;BME280;65949;53.132;17.930;2023-05-23T08:46:15;100738.95;;;23.86;32.94
77017;BME280;65949;53.132;17.930;2023-05-23T08:48:43;100741.31;;;23.89;33.26
77017;BME280;65949;53.132;17.930;2023-05-23T08:51:14;100743.00;;;23.97;33.38
77017;BME280;65949;53.132;17.930;2023-05-23T08:53:44;100741.56;;;24.11;33.35
77017;BME280;65949;53.132;17.930;2023-05-23T08:56:14;100744.96;;;24.27;32.63
77017;BME280;65949;53.132;17.930;2023-05-23T08:58:44;100741.29;;;24.43;32.88
77017;BME280;65949;53.132;17.930;2023-05-23T09:01:13;100741.16;;;24.68;32.48
77017;BME280;65949;53.132;17.930;2023-05-23T09:03:40;100737.52;;;24.87;31.95
77017;BME280;65949;53.132;17.930;2023-05-23T09:06:24;100742.11;;;24.97;32.02
77017;BME280;65949;53.132;17.930;2023-05-23T09:08:51;100740.75;;;25.00;31.18
77017;BME280;65949;53.132;17.930;2023-05-23T09:11:19;100744.69;;;25.02;30.88
77017;BME280;65949;53.132;17.930;2023-05-23T09:13:47;100744.69;;;25.03;30.92
77017;BME280;65949;53.132;17.930;2023-05-23T09:16:17;100743.77;;;25.05;30.89
77017;BME280;65949;53.132;17.930;2023-05-23T09:18:48;100740.45;;;25.01;30.64
77017;BME280;65949;53.132;17.930;2023-05-23T09:21:16;100742.35;;;24.97;31.19
77017;BME280;65949;53.132;17.930;2023-05-23T09:24:04;100743.18;;;24.91;30.69
77017;BME280;65949;53.132;17.930;2023-05-23T09:26:31;100747.79;;;24.82;30.41
77017;BME280;65949;53.132;17.930;2023-05-23T09:28:57;100746.60;;;24.74;31.18
77017;BME280;65949;53.132;17.930;2023-05-23T09:31:26;100737.63;;;24.72;30.61
77017;BME280;65949;53.132;17.930;2023-05-23T09:33:57;100738.23;;;24.69;31.22
77017;BME280;65949;53.132;17.930;2023-05-23T09:36:27;100741.23;;;24.76;30.91
77017;BME280;65949;53.132;17.930;2023-05-23T09:39:03;100736.98;;;24.86;30.64
77017;BME280;65949;53.132;17.930;2023-05-23T09:41:34;100731.77;;;24.94;30.82
77017;BME280;65949;53.132;17.930;2023-05-23T09:44:06;100730.44;;;25.03;30.56
77017;BME280;65949;53.132;17.930;2023-05-23T09:46:36;100733.53;;;25.05;31.09
77017;BME280;65949;53.132;17.930;2023-05-23T09:49:17;100729.30;;;24.99;30.86
77017;BME280;65949;53.132;17.930;2023-05-23T09:51:56;100726.80;;;24.94;30.53
77017;BME280;65949;53.132;17.930;2023-05-23T09:54:23;100720.93;;;24.94;30.58
77017;BME280;65949;53.132;17.930;2023-05-23T09:56:51;100724.01;;;25.07;30.92
77017;BME280;65949;53.132;17.930;2023-05-23T09:59:20;100718.65;;;25.26;30.83
77017;BME280;65949;53.132;17.930;2023-05-23T10:01:50;100731.19;;;25.38;30.84
77017;BME280;65949;53.132;17.930;2023-05-23T10:04:20;100728.56;;;25.27;30.88
77017;BME280;65949;53.132;17.930;2023-05-23T10:06:55;100730.61;;;25.23;30.85
77017;BME280;65949;53.132;17.930;2023-05-23T10:09:23;100728.30;;;25.16;30.95
77017;BME280;65949;53.132;17.930;2023-05-23T10:14:43;100728.38;;;24.62;31.26
77017;BME280;65949;53.132;17.930;2023-05-23T10:17:16;100732.70;;;24.56;32.25
77017;BME280;65949;53.132;17.930;2023-05-23T10:19:57;100731.44;;;24.63;32.37
77017;BME280;65949;53.132;17.930;2023-05-23T10:22:25;100733.98;;;24.85;31.68
77017;BME280;65949;53.132;17.930;2023-05-23T10:24:52;100726.71;;;25.03;30.88
77017;BME280;65949;53.132;17.930;2023-05-23T10:27:19;100727.09;;;25.09;30.73
77017;BME280;65949;53.132;17.930;2023-05-23T10:29:46;100732.03;;;25.12;31.32
77017;BME280;65949;53.132;17.930;2023-05-23T10:32:14;100726.39;;;25.09;31.72
77017;BME280;65949;53.132;17.930;2023-05-23T10:38:59;100718.76;;;24.95;31.29
77017;BME280;65949;53.132;17.930;2023-05-23T10:41:38;100716.05;;;25.03;31.28
77017;BME280;65949;53.132;17.930;2023-05-23T10:44:22;100711.29;;;25.19;30.56
77017;BME280;65949;53.132;17.930;2023-05-23T10:46:57;100711.06;;;25.22;30.12
77017;BME280;65949;53.132;17.930;2023-05-23T10:49:43;100701.91;;;25.11;30.17
77017;BME280;65949;53.132;17.930;2023-05-23T10:52:17;100708.77;;;25.01;30.54
77017;BME280;65949;53.132;17.930;2023-05-23T10:54:52;100709.86;;;24.96;30.69
77017;BME280;65949;53.132;17.930;2023-05-23T10:57:26;100713.48;;;24.97;30.98
77017;BME280;65949;53.132;17.930;2023-05-23T10:59:53;100710.11;;;24.94;30.78
77017;BME280;65949;53.132;17.930;2023-05-23T11:02:27;100705.10;;;24.95;31.05
77017;BME280;65949;53.132;17.930;2023-05-23T11:05:23;100710.02;;;24.99;30.98
77017;BME280;65949;53.132;17.930;2023-05-23T11:08:12;100707.82;;;25.03;30.92
77017;BME280;65949;53.132;17.930;2023-05-23T11:13:20;100700.50;;;25.03;30.96
77017;BME280;65949;53.132;17.930;2023-05-23T11:15:48;100699.80;;;25.02;30.98
77017;BME280;65949;53.132;17.930;2023-05-23T11:18:23;100692.62;;;24.95;31.24
77017;BME280;65949;53.132;17.930;2023-05-23T11:20:51;100693.84;;;24.89;31.18
77017;BME280;65949;53.132;17.930;2023-05-23T11:23:19;100699.08;;;24.84;31.60
77017;BME280;65949;53.132;17.930;2023-05-23T11:25:51;100699.18;;;24.83;31.20
77017;BME280;65949;53.132;17.930;2023-05-23T11:28:19;100698.45;;;24.80;31.60
77017;BME280;65949;53.132;17.930;2023-05-23T11:30:47;100698.77;;;24.71;31.35
77017;BME280;65949;53.132;17.930;2023-05-23T11:33:15;100695.55;;;24.62;31.14
77017;BME280;65949;53.132;17.930;2023-05-23T11:35:45;100693.79;;;24.52;31.28
77017;BME280;65949;53.132;17.930;2023-05-23T11:38:14;100696.40;;;24.42;31.50
77017;BME280;65949;53.132;17.930;2023-05-23T11:40:45;100694.23;;;24.34;31.72
77017;BME280;65949;53.132;17.930;2023-05-23T11:43:14;100695.66;;;24.25;31.41
77017;BME280;65949;53.132;17.930;2023-05-23T11:45:42;100692.38;;;24.13;31.10
77017;BME280;65949;53.132;17.930;2023-05-23T11:48:10;100692.77;;;24.02;31.55
77017;BME280;65949;53.132;17.930;2023-05-23T11:50:52;100692.23;;;23.95;31.57
77017;BME280;65949;53.132;17.930;2023-05-23T11:53:21;100690.15;;;23.90;31.98
77017;BME280;65949;53.132;17.930;2023-05-23T11:55:53;100691.44;;;23.88;31.93
77017;BME280;65949;53.132;17.930;2023-05-23T11:58:32;100689.59;;;23.83;31.90
77017;BME280;65949;53.132;17.930;2023-05-23T12:01:04;100686.25;;;23.78;32.20
77017;BME280;65949;53.132;17.930;2023-05-23T12:03:45;100689.43;;;23.75;32.60
77017;BME280;65949;53.132;17.930;2023-05-23T12:06:20;100691.25;;;23.69;32.29
77017;BME280;65949;53.132;17.930;2023-05-23T12:08:47;100688.67;;;23.70;32.21
77017;BME280;65949;53.132;17.930;2023-05-23T12:11:14;100685.28;;;23.76;32.05
77017;BME280;65949;53.132;17.930;2023-05-23T12:13:41;100685.05;;;23.84;32.28
77017;BME280;65949;53.132;17.930;2023-05-23T12:16:08;100683.37;;;23.90;32.00
77017;BME280;65949;53.132;17.930;2023-05-23T12:18:36;100681.48;;;23.90;32.22
77017;BME280;65949;53.132;17.930;2023-05-23T12:21:04;100684.31;;;23.93;32.37
77017;BME280;65949;53.132;17.930;2023-05-23T12:23:34;100685.61;;;23.99;32.80
77017;BME280;65949;53.132;17.930;2023-05-23T12:26:04;100684.39;;;24.04;32.29
77017;BME280;65949;53.132;17.930;2023-05-23T12:28:40;100681.67;;;24.08;32.02
77017;BME280;65949;53.132;17.930;2023-05-23T12:31:17;100679.63;;;24.11;32.46
77017;BME280;65949;53.132;17.930;2023-05-23T12:33:45;100679.25;;;24.14;32.29
77017;BME280;65949;53.132;17.930;2023-05-23T12:36:14;100677.65;;;24.20;32.71
77017;BME280;65949;53.132;17.930;2023-05-23T12:38:41;100674.53;;;24.26;32.02
77017;BME280;65949;53.132;17.930;2023-05-23T12:41:14;100676.73;;;24.35;31.86
77017;BME280;65949;53.132;17.930;2023-05-23T12:43:49;100673.34;;;24.45;31.38
77017;BME280;65949;53.132;17.930;2023-05-23T12:46:18;100671.64;;;24.53;31.62
77017;BME280;65949;53.132;17.930;2023-05-23T12:48:44;100673.06;;;24.58;31.05
77017;BME280;65949;53.132;17.930;2023-05-23T12:51:11;100666.41;;;24.62;30.82
77017;BME280;65949;53.132;17.930;2023-05-23T12:53:38;100665.36;;;24.61;31.13
77017;BME280;65949;53.132;17.930;2023-05-23T12:56:04;100662.67;;;24.56;31.07
77017;BME280;65949;53.132;17.930;2023-05-23T12:58:31;100662.42;;;24.46;31.19
77017;BME280;65949;53.132;17.930;2023-05-23T13:00:58;100660.09;;;24.35;31.22
77017;BME280;65949;53.132;17.930;2023-05-23T13:03:25;100657.15;;;24.28;31.01